Search for airport 
image banner adimage banner adimage banner ad
image banner ad

PS22 - Lehigh Vally Hospital - Hazleton

Located in Hazleton, United States

ICAO - PS22, IATA -

Data provided by Airmate  

General information

Coordinates: N40°56'59" W75°57'52"
Elevation is 1670 feet MSL.
 
View others Airports in Pennsylvania

Operational data

Special qualification required
Current time UTC:
Current local time:
Weather at : KHZL - Hazleton Rgnl ( 5 km )
METAR: KHZL 091555Z AUTO 25005KT 10SM SCT080 SCT085 10/00 A3006 RMK AO2
View NOTAMs / SUP AIP / TFR affecting this airport [VIEW]
Communications frequencies: [VIEW]

Runways:

Airport contact information

Address: Hazleton United States

Satellite view of PS22